sensor_id;sensor_type;location;lat;lon;timestamp;P1;durP1;ratioP1;P2;durP2;ratioP2
58468;SDS011;44257;44.804;10.220;2023-10-08T00:01:15;35.90;;;28.98;;
58468;SDS011;44257;44.804;10.220;2023-10-08T00:03:48;36.42;;;29.75;;
58468;SDS011;44257;44.804;10.220;2023-10-08T00:06:14;36.75;;;29.88;;
58468;SDS011;44257;44.804;10.220;2023-10-08T00:08:40;35.80;;;29.33;;
58468;SDS011;44257;44.804;10.220;2023-10-08T00:11:07;37.85;;;28.67;;
58468;SDS011;44257;44.804;10.220;2023-10-08T00:13:35;36.17;;;29.10;;
58468;SDS011;44257;44.804;10.220;2023-10-08T00:16:08;37.05;;;29.48;;
58468;SDS011;44257;44.804;10.220;2023-10-08T00:18:35;35.80;;;28.70;;
58468;SDS011;44257;44.804;10.220;2023-10-08T00:21:28;36.13;;;29.58;;
58468;SDS011;44257;44.804;10.220;2023-10-08T00:23:56;36.97;;;28.38;;
58468;SDS011;44257;44.804;10.220;2023-10-08T00:26:25;38.88;;;29.17;;
58468;SDS011;44257;44.804;10.220;2023-10-08T00:29:02;35.30;;;29.20;;
58468;SDS011;44257;44.804;10.220;2023-10-08T00:31:34;35.67;;;29.75;;
58468;SDS011;44257;44.804;10.220;2023-10-08T00:34:05;39.42;;;30.17;;
58468;SDS011;44257;44.804;10.220;2023-10-08T00:36:33;38.17;;;30.05;;
58468;SDS011;44257;44.804;10.220;2023-10-08T00:39:00;39.50;;;30.27;;
58468;SDS011;44257;44.804;10.220;2023-10-08T00:41:33;37.60;;;29.52;;
58468;SDS011;44257;44.804;10.220;2023-10-08T00:43:59;38.20;;;28.42;;
58468;SDS011;44257;44.804;10.220;2023-10-08T00:46:25;40.42;;;30.35;;
58468;SDS011;44257;44.804;10.220;2023-10-08T00:48:56;40.22;;;31.67;;
58468;SDS011;44257;44.804;10.220;2023-10-08T00:51:24;38.83;;;29.65;;
58468;SDS011;44257;44.804;10.220;2023-10-08T00:53:54;35.63;;;28.00;;
58468;SDS011;44257;44.804;10.220;2023-10-08T00:56:31;38.65;;;28.83;;
58468;SDS011;44257;44.804;10.220;2023-10-08T00:59:16;40.15;;;29.35;;
58468;SDS011;44257;44.804;10.220;2023-10-08T01:01:46;37.17;;;30.42;;
58468;SDS011;44257;44.804;10.220;2023-10-08T01:04:25;39.42;;;29.27;;
58468;SDS011;44257;44.804;10.220;2023-10-08T01:06:53;37.40;;;29.85;;
58468;SDS011;44257;44.804;10.220;2023-10-08T01:09:24;37.05;;;30.55;;
58468;SDS011;44257;44.804;10.220;2023-10-08T01:12:06;38.97;;;30.83;;
58468;SDS011;44257;44.804;10.220;2023-10-08T01:14:45;40.42;;;30.73;;
58468;SDS011;44257;44.804;10.220;2023-10-08T01:17:14;40.08;;;30.75;;
58468;SDS011;44257;44.804;10.220;2023-10-08T01:19:44;37.83;;;30.75;;
58468;SDS011;44257;44.804;10.220;2023-10-08T01:22:37;40.08;;;31.25;;
58468;SDS011;44257;44.804;10.220;2023-10-08T01:25:06;43.03;;;32.22;;
58468;SDS011;44257;44.804;10.220;2023-10-08T01:27:35;46.17;;;32.22;;
58468;SDS011;44257;44.804;10.220;2023-10-08T01:30:02;40.60;;;32.30;;
58468;SDS011;44257;44.804;10.220;2023-10-08T01:32:46;46.88;;;32.58;;
58468;SDS011;44257;44.804;10.220;2023-10-08T01:35:12;45.75;;;33.40;;
58468;SDS011;44257;44.804;10.220;2023-10-08T01:37:58;41.97;;;32.08;;
58468;SDS011;44257;44.804;10.220;2023-10-08T01:40:26;42.83;;;32.65;;
58468;SDS011;44257;44.804;10.220;2023-10-08T01:42:54;42.72;;;33.67;;
58468;SDS011;44257;44.804;10.220;2023-10-08T01:45:20;43.65;;;33.70;;
58468;SDS011;44257;44.804;10.220;2023-10-08T01:47:49;41.63;;;33.90;;
58468;SDS011;44257;44.804;10.220;2023-10-08T01:50:17;44.95;;;32.20;;
58468;SDS011;44257;44.804;10.220;2023-10-08T01:52:54;45.28;;;33.67;;
58468;SDS011;44257;44.804;10.220;2023-10-08T01:55:20;41.90;;;32.17;;
58468;SDS011;44257;44.804;10.220;2023-10-08T01:57:51;42.00;;;32.53;;
58468;SDS011;44257;44.804;10.220;2023-10-08T02:00:17;40.67;;;31.42;;
58468;SDS011;44257;44.804;10.220;2023-10-08T02:02:47;43.15;;;32.10;;
58468;SDS011;44257;44.804;10.220;2023-10-08T02:05:15;38.92;;;31.10;;
58468;SDS011;44257;44.804;10.220;2023-10-08T02:07:47;42.50;;;32.95;;
58468;SDS011;44257;44.804;10.220;2023-10-08T02:10:13;40.42;;;31.88;;
58468;SDS011;44257;44.804;10.220;2023-10-08T02:12:40;41.42;;;30.83;;
58468;SDS011;44257;44.804;10.220;2023-10-08T02:15:07;43.55;;;31.70;;
58468;SDS011;44257;44.804;10.220;2023-10-08T02:17:34;42.97;;;32.55;;
58468;SDS011;44257;44.804;10.220;2023-10-08T02:20:00;39.95;;;31.60;;
58468;SDS011;44257;44.804;10.220;2023-10-08T02:22:30;48.35;;;33.00;;
58468;SDS011;44257;44.804;10.220;2023-10-08T02:24:58;45.20;;;32.67;;
58468;SDS011;44257;44.804;10.220;2023-10-08T02:27:27;43.33;;;32.88;;
58468;SDS011;44257;44.804;10.220;2023-10-08T02:29:53;41.70;;;32.13;;
58468;SDS011;44257;44.804;10.220;2023-10-08T02:32:20;43.70;;;33.22;;
58468;SDS011;44257;44.804;10.220;2023-10-08T02:34:48;41.67;;;32.53;;
58468;SDS011;44257;44.804;10.220;2023-10-08T02:37:15;44.53;;;32.85;;
58468;SDS011;44257;44.804;10.220;2023-10-08T02:39:41;43.60;;;32.33;;
58468;SDS011;44257;44.804;10.220;2023-10-08T02:42:08;46.20;;;34.60;;
58468;SDS011;44257;44.804;10.220;2023-10-08T02:44:36;41.85;;;33.15;;
58468;SDS011;44257;44.804;10.220;2023-10-08T02:47:08;46.70;;;34.50;;
58468;SDS011;44257;44.804;10.220;2023-10-08T02:49:37;42.22;;;32.55;;
58468;SDS011;44257;44.804;10.220;2023-10-08T02:52:06;41.65;;;33.30;;
58468;SDS011;44257;44.804;10.220;2023-10-08T02:54:34;43.20;;;32.80;;
58468;SDS011;44257;44.804;10.220;2023-10-08T02:57:02;40.85;;;32.42;;
58468;SDS011;44257;44.804;10.220;2023-10-08T02:59:29;44.42;;;33.67;;
58468;SDS011;44257;44.804;10.220;2023-10-08T03:02:11;51.13;;;32.87;;
58468;SDS011;44257;44.804;10.220;2023-10-08T03:04:44;44.00;;;33.53;;
58468;SDS011;44257;44.804;10.220;2023-10-08T03:07:14;45.70;;;33.28;;
58468;SDS011;44257;44.804;10.220;2023-10-08T03:09:49;45.80;;;35.30;;
58468;SDS011;44257;44.804;10.220;2023-10-08T03:12:16;44.10;;;33.63;;
58468;SDS011;44257;44.804;10.220;2023-10-08T03:14:43;45.40;;;34.60;;
58468;SDS011;44257;44.804;10.220;2023-10-08T03:17:29;45.55;;;34.00;;
58468;SDS011;44257;44.804;10.220;2023-10-08T03:19:55;43.45;;;35.40;;
58468;SDS011;44257;44.804;10.220;2023-10-08T03:22:44;48.53;;;34.35;;
58468;SDS011;44257;44.804;10.220;2023-10-08T03:25:12;46.08;;;33.45;;
58468;SDS011;44257;44.804;10.220;2023-10-08T03:27:45;47.10;;;35.78;;
58468;SDS011;44257;44.804;10.220;2023-10-08T03:30:10;47.95;;;35.90;;
58468;SDS011;44257;44.804;10.220;2023-10-08T03:32:40;50.58;;;35.95;;
58468;SDS011;44257;44.804;10.220;2023-10-08T03:35:09;49.90;;;36.20;;
58468;SDS011;44257;44.804;10.220;2023-10-08T03:37:36;52.53;;;37.50;;
58468;SDS011;44257;44.804;10.220;2023-10-08T03:40:07;49.90;;;36.20;;
58468;SDS011;44257;44.804;10.220;2023-10-08T03:42:52;51.70;;;37.45;;
58468;SDS011;44257;44.804;10.220;2023-10-08T03:45:21;53.83;;;39.10;;
58468;SDS011;44257;44.804;10.220;2023-10-08T03:48:06;49.28;;;36.63;;
58468;SDS011;44257;44.804;10.220;2023-10-08T03:50:35;53.05;;;38.03;;
58468;SDS011;44257;44.804;10.220;2023-10-08T03:53:09;47.70;;;35.38;;
58468;SDS011;44257;44.804;10.220;2023-10-08T03:55:40;49.72;;;37.05;;
58468;SDS011;44257;44.804;10.220;2023-10-08T03:58:09;47.42;;;36.28;;
58468;SDS011;44257;44.804;10.220;2023-10-08T04:00:45;49.50;;;35.30;;
58468;SDS011;44257;44.804;10.220;2023-10-08T04:03:11;48.70;;;35.90;;
58468;SDS011;44257;44.804;10.220;2023-10-08T04:05:37;48.42;;;34.92;;
58468;SDS011;44257;44.804;10.220;2023-10-08T04:08:24;47.58;;;33.75;;
58468;SDS011;44257;44.804;10.220;2023-10-08T04:11:10;46.45;;;35.38;;
58468;SDS011;44257;44.804;10.220;2023-10-08T04:13:48;52.85;;;35.20;;
58468;SDS011;44257;44.804;10.220;2023-10-08T04:16:13;46.75;;;33.97;;
58468;SDS011;44257;44.804;10.220;2023-10-08T04:18:44;48.88;;;34.85;;
58468;SDS011;44257;44.804;10.220;2023-10-08T04:21:11;46.20;;;34.45;;
58468;SDS011;44257;44.804;10.220;2023-10-08T04:23:39;41.88;;;33.03;;
58468;SDS011;44257;44.804;10.220;2023-10-08T04:26:05;44.50;;;32.88;;
58468;SDS011;44257;44.804;10.220;2023-10-08T04:28:32;45.63;;;35.10;;
58468;SDS011;44257;44.804;10.220;2023-10-08T04:31:00;46.13;;;34.28;;
58468;SDS011;44257;44.804;10.220;2023-10-08T04:33:39;45.95;;;33.58;;
58468;SDS011;44257;44.804;10.220;2023-10-08T04:36:10;45.72;;;34.70;;
58468;SDS011;44257;44.804;10.220;2023-10-08T04:38:43;46.65;;;33.88;;
58468;SDS011;44257;44.804;10.220;2023-10-08T04:41:11;44.28;;;33.55;;
58468;SDS011;44257;44.804;10.220;2023-10-08T04:43:37;48.78;;;35.50;;
58468;SDS011;44257;44.804;10.220;2023-10-08T04:46:03;46.85;;;32.83;;
58468;SDS011;44257;44.804;10.220;2023-10-08T04:48:59;44.30;;;33.47;;
58468;SDS011;44257;44.804;10.220;2023-10-08T04:51:30;42.50;;;32.95;;
58468;SDS011;44257;44.804;10.220;2023-10-08T04:54:05;43.83;;;32.78;;
58468;SDS011;44257;44.804;10.220;2023-10-08T04:56:31;43.75;;;32.92;;
58468;SDS011;44257;44.804;10.220;2023-10-08T04:58:58;44.13;;;32.83;;
58468;SDS011;44257;44.804;10.220;2023-10-08T05:01:24;41.65;;;33.00;;
58468;SDS011;44257;44.804;10.220;2023-10-08T05:04:03;42.75;;;31.60;;
58468;SDS011;44257;44.804;10.220;2023-10-08T05:06:30;42.88;;;31.75;;
58468;SDS011;44257;44.804;10.220;2023-10-08T05:09:12;39.90;;;30.65;;
58468;SDS011;44257;44.804;10.220;2023-10-08T05:11:44;42.90;;;31.90;;
58468;SDS011;44257;44.804;10.220;2023-10-08T05:14:31;40.70;;;30.20;;
58468;SDS011;44257;44.804;10.220;2023-10-08T05:16:57;37.70;;;30.35;;
58468;SDS011;44257;44.804;10.220;2023-10-08T05:19:48;40.30;;;30.05;;
58468;SDS011;44257;44.804;10.220;2023-10-08T05:22:33;39.40;;;30.52;;
58468;SDS011;44257;44.804;10.220;2023-10-08T05:25:02;40.22;;;30.08;;
58468;SDS011;44257;44.804;10.220;2023-10-08T05:27:37;39.13;;;29.92;;
58468;SDS011;44257;44.804;10.220;2023-10-08T05:30:26;39.78;;;29.75;;
58468;SDS011;44257;44.804;10.220;2023-10-08T05:33:18;38.22;;;27.95;;
58468;SDS011;44257;44.804;10.220;2023-10-08T05:35:45;36.75;;;28.63;;
58468;SDS011;44257;44.804;10.220;2023-10-08T05:38:12;42.30;;;30.27;;
58468;SDS011;44257;44.804;10.220;2023-10-08T05:40:49;37.47;;;29.50;;
58468;SDS011;44257;44.804;10.220;2023-10-08T05:43:22;38.03;;;27.85;;
58468;SDS011;44257;44.804;10.220;2023-10-08T05:46:12;36.15;;;27.95;;
58468;SDS011;44257;44.804;10.220;2023-10-08T05:48:49;35.85;;;27.80;;
58468;SDS011;44257;44.804;10.220;2023-10-08T05:51:42;37.17;;;27.00;;
58468;SDS011;44257;44.804;10.220;2023-10-08T05:54:14;32.67;;;25.02;;
58468;SDS011;44257;44.804;10.220;2023-10-08T05:57:05;34.08;;;24.90;;
58468;SDS011;44257;44.804;10.220;2023-10-08T05:59:39;35.33;;;24.55;;
58468;SDS011;44257;44.804;10.220;2023-10-08T06:02:24;30.30;;;24.50;;
58468;SDS011;44257;44.804;10.220;2023-10-08T06:05:03;31.55;;;24.70;;
58468;SDS011;44257;44.804;10.220;2023-10-08T06:07:51;32.63;;;24.42;;
58468;SDS011;44257;44.804;10.220;2023-10-08T06:10:22;35.00;;;24.60;;
58468;SDS011;44257;44.804;10.220;2023-10-08T06:13:11;34.53;;;24.48;;
58468;SDS011;44257;44.804;10.220;2023-10-08T06:15:57;32.78;;;24.08;;
58468;SDS011;44257;44.804;10.220;2023-10-08T06:18:26;29.95;;;24.45;;
58468;SDS011;44257;44.804;10.220;2023-10-08T06:23:27;27.60;;;24.20;;
58468;SDS011;44257;44.804;10.220;2023-10-08T06:25:54;31.10;;;23.27;;
58468;SDS011;44257;44.804;10.220;2023-10-08T06:28:36;27.38;;;22.00;;
58468;SDS011;44257;44.804;10.220;2023-10-08T06:31:03;28.88;;;23.45;;
58468;SDS011;44257;44.804;10.220;2023-10-08T06:33:49;24.15;;;20.48;;
58468;SDS011;44257;44.804;10.220;2023-10-08T06:36:15;28.33;;;21.88;;
58468;SDS011;44257;44.804;10.220;2023-10-08T06:38:42;25.50;;;22.05;;
58468;SDS011;44257;44.804;10.220;2023-10-08T06:41:10;26.98;;;20.95;;
58468;SDS011;44257;44.804;10.220;2023-10-08T06:43:43;29.83;;;21.05;;
58468;SDS011;44257;44.804;10.220;2023-10-08T06:46:27;31.00;;;20.67;;
58468;SDS011;44257;44.804;10.220;2023-10-08T06:49:03;23.33;;;19.13;;
58468;SDS011;44257;44.804;10.220;2023-10-08T06:51:37;23.83;;;19.33;;
58468;SDS011;44257;44.804;10.220;2023-10-08T06:54:03;23.27;;;19.45;;
58468;SDS011;44257;44.804;10.220;2023-10-08T06:56:29;25.38;;;19.55;;
58468;SDS011;44257;44.804;10.220;2023-10-08T06:58:56;22.45;;;18.70;;
58468;SDS011;44257;44.804;10.220;2023-10-08T07:01:24;26.98;;;18.30;;
58468;SDS011;44257;44.804;10.220;2023-10-08T07:03:50;22.55;;;17.90;;
58468;SDS011;44257;44.804;10.220;2023-10-08T07:06:17;22.02;;;17.70;;
58468;SDS011;44257;44.804;10.220;2023-10-08T07:08:56;24.38;;;18.52;;
58468;SDS011;44257;44.804;10.220;2023-10-08T07:11:33;24.33;;;18.73;;
58468;SDS011;44257;44.804;10.220;2023-10-08T07:14:04;21.83;;;17.70;;
58468;SDS011;44257;44.804;10.220;2023-10-08T07:16:33;21.95;;;17.48;;
58468;SDS011;44257;44.804;10.220;2023-10-08T07:18:59;22.55;;;18.48;;
58468;SDS011;44257;44.804;10.220;2023-10-08T07:21:41;23.00;;;18.40;;
58468;SDS011;44257;44.804;10.220;2023-10-08T07:24:11;22.27;;;18.40;;
58468;SDS011;44257;44.804;10.220;2023-10-08T07:26:43;24.00;;;18.92;;
58468;SDS011;44257;44.804;10.220;2023-10-08T07:29:11;25.10;;;19.25;;
58468;SDS011;44257;44.804;10.220;2023-10-08T07:31:42;25.95;;;20.10;;
58468;SDS011;44257;44.804;10.220;2023-10-08T07:34:14;26.13;;;22.17;;
58468;SDS011;44257;44.804;10.220;2023-10-08T07:36:41;26.17;;;21.70;;
58468;SDS011;44257;44.804;10.220;2023-10-08T07:39:08;29.35;;;22.98;;
58468;SDS011;44257;44.804;10.220;2023-10-08T07:41:50;26.08;;;22.17;;
58468;SDS011;44257;44.804;10.220;2023-10-08T07:44:19;24.00;;;21.15;;
58468;SDS011;44257;44.804;10.220;2023-10-08T07:46:49;26.15;;;22.35;;
58468;SDS011;44257;44.804;10.220;2023-10-08T07:49:16;26.90;;;23.38;;
58468;SDS011;44257;44.804;10.220;2023-10-08T07:51:43;30.73;;;25.20;;
58468;SDS011;44257;44.804;10.220;2023-10-08T07:54:21;33.85;;;26.25;;
58468;SDS011;44257;44.804;10.220;2023-10-08T07:56:56;32.15;;;26.42;;
58468;SDS011;44257;44.804;10.220;2023-10-08T08:02:12;32.95;;;25.25;;
58468;SDS011;44257;44.804;10.220;2023-10-08T08:04:39;31.67;;;23.98;;
58468;SDS011;44257;44.804;10.220;2023-10-08T08:07:06;29.05;;;24.10;;
58468;SDS011;44257;44.804;10.220;2023-10-08T08:09:32;31.77;;;25.45;;
58468;SDS011;44257;44.804;10.220;2023-10-08T08:12:06;33.08;;;26.65;;
58468;SDS011;44257;44.804;10.220;2023-10-08T08:14:35;33.35;;;27.10;;
58468;SDS011;44257;44.804;10.220;2023-10-08T08:17:04;31.20;;;25.95;;
58468;SDS011;44257;44.804;10.220;2023-10-08T08:19:45;32.15;;;28.63;;
58468;SDS011;44257;44.804;10.220;2023-10-08T08:22:12;31.35;;;26.27;;
58468;SDS011;44257;44.804;10.220;2023-10-08T08:24:56;49.17;;;26.85;;
58468;SDS011;44257;44.804;10.220;2023-10-08T08:27:40;32.83;;;28.08;;
58468;SDS011;44257;44.804;10.220;2023-10-08T08:30:12;32.03;;;24.42;;
58468;SDS011;44257;44.804;10.220;2023-10-08T08:32:41;28.05;;;24.70;;
58468;SDS011;44257;44.804;10.220;2023-10-08T08:35:10;30.25;;;23.85;;
58468;SDS011;44257;44.804;10.220;2023-10-08T08:37:37;30.25;;;25.48;;
58468;SDS011;44257;44.804;10.220;2023-10-08T08:40:05;28.58;;;23.65;;
58468;SDS011;44257;44.804;10.220;2023-10-08T08:42:46;30.80;;;25.60;;
58468;SDS011;44257;44.804;10.220;2023-10-08T08:45:15;30.67;;;23.75;;
58468;SDS011;44257;44.804;10.220;2023-10-08T08:47:47;28.75;;;23.38;;
58468;SDS011;44257;44.804;10.220;2023-10-08T08:50:13;28.33;;;22.98;;
58468;SDS011;44257;44.804;10.220;2023-10-08T08:52:40;29.38;;;23.98;;
58468;SDS011;44257;44.804;10.220;2023-10-08T08:55:06;31.95;;;24.27;;
58468;SDS011;44257;44.804;10.220;2023-10-08T08:57:39;29.75;;;25.20;;
58468;SDS011;44257;44.804;10.220;2023-10-08T09:00:09;27.95;;;24.30;;
58468;SDS011;44257;44.804;10.220;2023-10-08T09:02:37;26.63;;;22.17;;
58468;SDS011;44257;44.804;10.220;2023-10-08T09:05:04;27.90;;;22.48;;
58468;SDS011;44257;44.804;10.220;2023-10-08T09:10:38;30.48;;;24.73;;
58468;SDS011;44257;44.804;10.220;2023-10-08T09:13:18;28.63;;;24.02;;
58468;SDS011;44257;44.804;10.220;2023-10-08T09:15:46;27.40;;;24.17;;
58468;SDS011;44257;44.804;10.220;2023-10-08T09:18:12;28.85;;;23.70;;
58468;SDS011;44257;44.804;10.220;2023-10-08T09:20:39;28.58;;;24.23;;
58468;SDS011;44257;44.804;10.220;2023-10-08T09:23:09;28.63;;;23.98;;
58468;SDS011;44257;44.804;10.220;2023-10-08T09:25:47;27.52;;;22.92;;
58468;SDS011;44257;44.804;10.220;2023-10-08T09:28:17;30.58;;;22.73;;
58468;SDS011;44257;44.804;10.220;2023-10-08T09:30:44;27.98;;;22.73;;
58468;SDS011;44257;44.804;10.220;2023-10-08T09:33:14;27.52;;;20.15;;
58468;SDS011;44257;44.804;10.220;2023-10-08T09:35:43;27.77;;;22.92;;
58468;SDS011;44257;44.804;10.220;2023-10-08T09:38:11;24.67;;;19.63;;
58468;SDS011;44257;44.804;10.220;2023-10-08T09:40:41;26.90;;;20.90;;
58468;SDS011;44257;44.804;10.220;2023-10-08T09:43:12;27.10;;;19.05;;
58468;SDS011;44257;44.804;10.220;2023-10-08T09:45:47;22.60;;;20.10;;
58468;SDS011;44257;44.804;10.220;2023-10-08T09:48:18;22.63;;;17.98;;
58468;SDS011;44257;44.804;10.220;2023-10-08T09:50:47;22.88;;;17.67;;
58468;SDS011;44257;44.804;10.220;2023-10-08T09:53:17;22.20;;;16.60;;
58468;SDS011;44257;44.804;10.220;2023-10-08T09:55:56;19.02;;;15.57;;
58468;SDS011;44257;44.804;10.220;2023-10-08T09:58:23;19.65;;;15.95;;
58468;SDS011;44257;44.804;10.220;2023-10-08T10:00:54;20.88;;;14.65;;
58468;SDS011;44257;44.804;10.220;2023-10-08T10:03:22;19.60;;;14.15;;
58468;SDS011;44257;44.804;10.220;2023-10-08T10:05:52;19.33;;;13.27;;
58468;SDS011;44257;44.804;10.220;2023-10-08T10:08:23;20.48;;;13.23;;
58468;SDS011;44257;44.804;10.220;2023-10-08T10:11:01;18.48;;;15.25;;
58468;SDS011;44257;44.804;10.220;2023-10-08T10:13:28;17.85;;;14.75;;
58468;SDS011;44257;44.804;10.220;2023-10-08T10:15:59;16.67;;;13.65;;
58468;SDS011;44257;44.804;10.220;2023-10-08T10:20:57;16.55;;;13.20;;
58468;SDS011;44257;44.804;10.220;2023-10-08T10:23:50;17.63;;;13.07;;
58468;SDS011;44257;44.804;10.220;2023-10-08T10:26:22;18.17;;;11.93;;
58468;SDS011;44257;44.804;10.220;2023-10-08T10:31:43;19.40;;;13.52;;
58468;SDS011;44257;44.804;10.220;2023-10-08T10:34:15;17.85;;;14.48;;
58468;SDS011;44257;44.804;10.220;2023-10-08T10:36:44;19.35;;;13.43;;
58468;SDS011;44257;44.804;10.220;2023-10-08T10:39:18;20.65;;;13.57;;
58468;SDS011;44257;44.804;10.220;2023-10-08T10:41:58;18.98;;;14.20;;
58468;SDS011;44257;44.804;10.220;2023-10-08T10:44:32;18.48;;;15.55;;
58468;SDS011;44257;44.804;10.220;2023-10-08T10:47:02;22.08;;;15.75;;
58468;SDS011;44257;44.804;10.220;2023-10-08T10:49:40;18.85;;;15.18;;
58468;SDS011;44257;44.804;10.220;2023-10-08T10:52:28;17.30;;;14.43;;
58468;SDS011;44257;44.804;10.220;2023-10-08T10:55:06;21.02;;;16.73;;
58468;SDS011;44257;44.804;10.220;2023-10-08T10:57:52;19.20;;;15.70;;
58468;SDS011;44257;44.804;10.220;2023-10-08T11:00:21;21.15;;;15.35;;
58468;SDS011;44257;44.804;10.220;2023-10-08T11:02:58;20.50;;;15.57;;
58468;SDS011;44257;44.804;10.220;2023-10-08T11:05:32;19.50;;;16.27;;
58468;SDS011;44257;44.804;10.220;2023-10-08T11:08:02;22.02;;;14.85;;
58468;SDS011;44257;44.804;10.220;2023-10-08T11:10:31;17.98;;;13.60;;
58468;SDS011;44257;44.804;10.220;2023-10-08T11:12:58;17.08;;;12.65;;
58468;SDS011;44257;44.804;10.220;2023-10-08T11:15:30;17.65;;;13.02;;
58468;SDS011;44257;44.804;10.220;2023-10-08T11:18:10;21.10;;;14.93;;
58468;SDS011;44257;44.804;10.220;2023-10-08T11:20:36;19.30;;;12.70;;
58468;SDS011;44257;44.804;10.220;2023-10-08T11:23:08;15.15;;;12.05;;
58468;SDS011;44257;44.804;10.220;2023-10-08T11:25:55;17.02;;;13.07;;
58468;SDS011;44257;44.804;10.220;2023-10-08T11:28:27;23.45;;;13.48;;
58468;SDS011;44257;44.804;10.220;2023-10-08T11:30:54;21.27;;;13.13;;
58468;SDS011;44257;44.804;10.220;2023-10-08T11:33:22;18.52;;;12.20;;
58468;SDS011;44257;44.804;10.220;2023-10-08T11:35:55;18.00;;;13.38;;
58468;SDS011;44257;44.804;10.220;2023-10-08T11:38:26;19.60;;;14.20;;
58468;SDS011;44257;44.804;10.220;2023-10-08T11:40:53;16.73;;;13.35;;
58468;SDS011;44257;44.804;10.220;2023-10-08T11:43:38;18.67;;;14.23;;
58468;SDS011;44257;44.804;10.220;2023-10-08T11:46:04;16.92;;;13.48;;
58468;SDS011;44257;44.804;10.220;2023-10-08T11:48:30;17.50;;;13.85;;
58468;SDS011;44257;44.804;10.220;2023-10-08T11:51:03;19.67;;;16.10;;
58468;SDS011;44257;44.804;10.220;2023-10-08T11:53:30;19.83;;;15.15;;
58468;SDS011;44257;44.804;10.220;2023-10-08T11:55:56;17.88;;;14.63;;
58468;SDS011;44257;44.804;10.220;2023-10-08T11:58:22;16.98;;;13.23;;
58468;SDS011;44257;44.804;10.220;2023-10-08T12:01:02;18.52;;;13.68;;
58468;SDS011;44257;44.804;10.220;2023-10-08T12:03:28;19.00;;;14.02;;
58468;SDS011;44257;44.804;10.220;2023-10-08T12:05:54;21.60;;;13.63;;
58468;SDS011;44257;44.804;10.220;2023-10-08T12:08:26;17.83;;;12.80;;
58468;SDS011;44257;44.804;10.220;2023-10-08T12:10:53;17.33;;;12.80;;
58468;SDS011;44257;44.804;10.220;2023-10-08T12:13:19;13.68;;;11.77;;
58468;SDS011;44257;44.804;10.220;2023-10-08T12:15:53;17.90;;;12.20;;
58468;SDS011;44257;44.804;10.220;2023-10-08T12:18:31;15.00;;;11.37;;
58468;SDS011;44257;44.804;10.220;2023-10-08T12:21:08;14.55;;;11.70;;
58468;SDS011;44257;44.804;10.220;2023-10-08T12:23:39;17.75;;;11.23;;
58468;SDS011;44257;44.804;10.220;2023-10-08T12:26:08;16.52;;;11.50;;
58468;SDS011;44257;44.804;10.220;2023-10-08T12:28:35;13.52;;;10.80;;
58468;SDS011;44257;44.804;10.220;2023-10-08T12:31:02;17.65;;;11.13;;
58468;SDS011;44257;44.804;10.220;2023-10-08T12:33:29;16.52;;;11.25;;
58468;SDS011;44257;44.804;10.220;2023-10-08T12:35:56;15.07;;;11.63;;
58468;SDS011;44257;44.804;10.220;2023-10-08T12:38:23;16.80;;;12.00;;
58468;SDS011;44257;44.804;10.220;2023-10-08T12:40:52;14.88;;;11.35;;
58468;SDS011;44257;44.804;10.220;2023-10-08T12:43:19;13.65;;;10.90;;
58468;SDS011;44257;44.804;10.220;2023-10-08T12:45:46;17.33;;;11.25;;
58468;SDS011;44257;44.804;10.220;2023-10-08T12:48:22;16.45;;;11.60;;
58468;SDS011;44257;44.804;10.220;2023-10-08T12:50:52;14.90;;;11.38;;
58468;SDS011;44257;44.804;10.220;2023-10-08T12:53:23;15.55;;;11.32;;
58468;SDS011;44257;44.804;10.220;2023-10-08T12:55:59;14.88;;;10.32;;
58468;SDS011;44257;44.804;10.220;2023-10-08T12:58:31;15.50;;;11.07;;
58468;SDS011;44257;44.804;10.220;2023-10-08T13:01:06;18.95;;;10.35;;
58468;SDS011;44257;44.804;10.220;2023-10-08T13:03:35;14.82;;;11.65;;
58468;SDS011;44257;44.804;10.220;2023-10-08T13:06:06;17.10;;;10.95;;
58468;SDS011;44257;44.804;10.220;2023-10-08T13:08:37;15.18;;;11.38;;
58468;SDS011;44257;44.804;10.220;2023-10-08T13:11:03;16.83;;;11.23;;
58468;SDS011;44257;44.804;10.220;2023-10-08T13:13:31;17.00;;;10.88;;
58468;SDS011;44257;44.804;10.220;2023-10-08T13:16:02;15.98;;;11.00;;
58468;SDS011;44257;44.804;10.220;2023-10-08T13:18:32;17.70;;;11.25;;
58468;SDS011;44257;44.804;10.220;2023-10-08T13:20:59;18.17;;;11.27;;
58468;SDS011;44257;44.804;10.220;2023-10-08T13:23:26;16.95;;;10.25;;
58468;SDS011;44257;44.804;10.220;2023-10-08T13:25:55;15.75;;;10.15;;
58468;SDS011;44257;44.804;10.220;2023-10-08T13:28:23;19.25;;;10.68;;
58468;SDS011;44257;44.804;10.220;2023-10-08T13:30:52;14.75;;;9.45;;
58468;SDS011;44257;44.804;10.220;2023-10-08T13:33:19;13.25;;;10.02;;
58468;SDS011;44257;44.804;10.220;2023-10-08T13:35:46;16.60;;;11.13;;
58468;SDS011;44257;44.804;10.220;2023-10-08T13:38:18;18.45;;;9.73;;
58468;SDS011;44257;44.804;10.220;2023-10-08T13:40:46;16.67;;;10.75;;
58468;SDS011;44257;44.804;10.220;2023-10-08T13:43:33;16.23;;;10.45;;
58468;SDS011;44257;44.804;10.220;2023-10-08T13:46:00;15.60;;;10.50;;
58468;SDS011;44257;44.804;10.220;2023-10-08T13:48:30;14.82;;;9.55;;
58468;SDS011;44257;44.804;10.220;2023-10-08T13:50:59;15.82;;;10.18;;
58468;SDS011;44257;44.804;10.220;2023-10-08T13:53:25;13.25;;;9.50;;
58468;SDS011;44257;44.804;10.220;2023-10-08T13:55:56;14.13;;;9.80;;
58468;SDS011;44257;44.804;10.220;2023-10-08T13:58:25;14.63;;;9.88;;
58468;SDS011;44257;44.804;10.220;2023-10-08T14:00:54;16.23;;;9.23;;
58468;SDS011;44257;44.804;10.220;2023-10-08T14:03:20;14.45;;;9.18;;
58468;SDS011;44257;44.804;10.220;2023-10-08T14:05:49;12.75;;;9.32;;
58468;SDS011;44257;44.804;10.220;2023-10-08T14:08:20;15.70;;;9.30;;
58468;SDS011;44257;44.804;10.220;2023-10-08T14:10:47;15.93;;;9.90;;
58468;SDS011;44257;44.804;10.220;2023-10-08T14:13:16;14.35;;;8.93;;
58468;SDS011;44257;44.804;10.220;2023-10-08T14:15:47;14.43;;;9.75;;
58468;SDS011;44257;44.804;10.220;2023-10-08T14:18:24;15.73;;;8.73;;
58468;SDS011;44257;44.804;10.220;2023-10-08T14:20:54;13.65;;;8.32;;
58468;SDS011;44257;44.804;10.220;2023-10-08T14:23:23;13.55;;;8.05;;
58468;SDS011;44257;44.804;10.220;2023-10-08T14:25:53;15.02;;;9.15;;
58468;SDS011;44257;44.804;10.220;2023-10-08T14:28:29;14.80;;;8.65;;
58468;SDS011;44257;44.804;10.220;2023-10-08T14:31:16;13.40;;;8.20;;
58468;SDS011;44257;44.804;10.220;2023-10-08T14:33:43;11.80;;;7.40;;
58468;SDS011;44257;44.804;10.220;2023-10-08T14:36:24;9.88;;;6.40;;
58468;SDS011;44257;44.804;10.220;2023-10-08T14:39:09;9.93;;;5.80;;
58468;SDS011;44257;44.804;10.220;2023-10-08T14:41:53;11.52;;;6.95;;
58468;SDS011;44257;44.804;10.220;2023-10-08T14:44:38;11.23;;;6.65;;
58468;SDS011;44257;44.804;10.220;2023-10-08T14:47:04;11.18;;;6.07;;
58468;SDS011;44257;44.804;10.220;2023-10-08T14:49:31;12.48;;;6.90;;
58468;SDS011;44257;44.804;10.220;2023-10-08T14:52:00;12.15;;;7.28;;